createdAt,value
2023-05-11T00:02:20.054Z,17.60
2023-05-11T00:04:47.331Z,17.60
2023-05-11T00:07:14.477Z,17.60
2023-05-11T00:09:41.932Z,17.60
2023-05-11T00:12:09.026Z,17.60
2023-05-11T00:14:36.236Z,17.60
2023-05-11T00:17:03.317Z,17.60
2023-05-11T00:19:31.862Z,17.60
2023-05-11T00:21:59.529Z,17.60
2023-05-11T00:24:26.706Z,17.60
2023-05-11T00:26:54.089Z,17.60
2023-05-11T00:29:21.450Z,17.60
2023-05-11T00:31:48.733Z,17.50
2023-05-11T00:34:16.679Z,17.50
2023-05-11T00:36:43.919Z,17.50
2023-05-11T00:39:12.866Z,17.50
2023-05-11T00:41:40.419Z,17.50
2023-05-11T00:44:07.520Z,17.40
2023-05-11T00:46:37.060Z,17.40
2023-05-11T00:49:04.203Z,17.30
2023-05-11T00:51:32.918Z,17.30
2023-05-11T00:54:01.027Z,17.20
2023-05-11T00:56:28.243Z,17.30
2023-05-11T00:58:55.506Z,17.30
2023-05-11T01:01:22.769Z,17.20
2023-05-11T01:03:49.987Z,17.10
2023-05-11T01:06:53.675Z,17.20
2023-05-11T01:09:33.040Z,17.20
2023-05-11T01:12:05.882Z,17.20
2023-05-11T01:14:39.635Z,17.20
2023-05-11T01:17:13.839Z,17.20
2023-05-11T01:20:17.834Z,17.20
2023-05-11T01:22:45.099Z,17.20
2023-05-11T01:25:30.256Z,17.20
2023-05-11T01:28:20.406Z,17.20
2023-05-11T01:30:52.354Z,17.10
2023-05-11T01:33:26.088Z,17.10
2023-05-11T01:35:55.310Z,17.10
2023-05-11T01:38:31.634Z,17.20
2023-05-11T01:40:58.754Z,17.20
2023-05-11T01:43:26.500Z,17.20
2023-05-11T01:45:54.112Z,17.20
2023-05-11T01:48:23.239Z,17.10
2023-05-11T01:50:50.606Z,17.10
2023-05-11T01:53:18.297Z,17.00
2023-05-11T01:55:46.493Z,17.00
2023-05-11T01:58:15.316Z,17.00
2023-05-11T02:00:43.691Z,17.00
2023-05-11T02:03:11.414Z,16.80
2023-05-11T02:05:39.300Z,16.70
2023-05-11T02:08:06.794Z,16.70
2023-05-11T02:10:33.883Z,16.70
2023-05-11T02:13:00.890Z,16.70
2023-05-11T02:15:28.026Z,16.70
2023-05-11T02:17:55.232Z,16.80
2023-05-11T02:20:22.361Z,16.90
2023-05-11T02:22:49.585Z,16.90
2023-05-11T02:25:16.735Z,16.90
2023-05-11T02:27:43.750Z,17.00
2023-05-11T02:30:11.746Z,17.00
2023-05-11T02:32:41.570Z,17.00
2023-05-11T02:35:12.191Z,17.00
2023-05-11T02:37:43.719Z,17.00
2023-05-11T02:40:19.646Z,17.00
2023-05-11T02:42:48.681Z,17.00
2023-05-11T02:45:15.957Z,17.00
2023-05-11T02:47:44.075Z,17.00
2023-05-11T02:50:11.174Z,17.00
2023-05-11T02:52:43.617Z,17.00
2023-05-11T02:55:11.124Z,17.00
2023-05-11T02:57:38.886Z,17.00
2023-05-11T03:00:06.955Z,16.90
2023-05-11T03:02:34.202Z,17.00
2023-05-11T03:05:01.624Z,16.90
2023-05-11T03:07:28.710Z,16.90
2023-05-11T03:09:55.962Z,16.90
2023-05-11T03:12:23.010Z,16.80
2023-05-11T03:14:50.074Z,16.80
2023-05-11T03:17:17.074Z,16.80
2023-05-11T03:19:44.305Z,16.70
2023-05-11T03:22:11.293Z,16.70
2023-05-11T03:24:38.744Z,16.70
2023-05-11T03:27:06.494Z,16.70
2023-05-11T03:29:34.733Z,16.70
2023-05-11T03:32:01.999Z,16.60
2023-05-11T03:34:29.258Z,16.60
2023-05-11T03:36:56.760Z,16.60
2023-05-11T03:39:23.835Z,16.60
2023-05-11T03:41:51.297Z,16.60
2023-05-11T03:44:23.178Z,16.60
2023-05-11T03:46:53.372Z,16.60
2023-05-11T03:49:20.458Z,16.60
2023-05-11T03:51:47.677Z,16.70
2023-05-11T03:54:14.654Z,16.60
2023-05-11T03:56:41.849Z,16.70
2023-05-11T03:59:09.703Z,16.70
2023-05-11T04:01:36.952Z,16.70
2023-05-11T04:04:04.301Z,16.70
2023-05-11T04:06:31.744Z,16.70
2023-05-11T04:08:58.892Z,16.80
2023-05-11T04:11:27.651Z,16.80
2023-05-11T04:13:54.712Z,16.80
2023-05-11T04:16:21.877Z,16.80
2023-05-11T04:18:48.964Z,16.80
2023-05-11T04:21:16.560Z,16.80
2023-05-11T04:23:43.710Z,16.90
2023-05-11T04:26:10.767Z,16.90
2023-05-11T04:28:37.863Z,16.90
2023-05-11T04:31:05.114Z,16.80
2023-05-11T04:33:34.636Z,16.90
2023-05-11T04:36:01.677Z,16.90
2023-05-11T04:38:28.877Z,17.00
2023-05-11T04:40:56.187Z,17.00
2023-05-11T04:43:23.527Z,17.00
2023-05-11T04:45:51.138Z,17.00
2023-05-11T04:48:20.570Z,17.00
2023-05-11T04:50:48.105Z,17.00
2023-05-11T04:53:15.182Z,17.10
2023-05-11T04:55:42.317Z,17.10
2023-05-11T04:58:09.471Z,17.20
2023-05-11T05:00:36.752Z,17.10
2023-05-11T05:03:04.209Z,17.20
2023-05-11T05:05:31.487Z,17.20
2023-05-11T05:07:58.599Z,17.20
2023-05-11T05:10:25.820Z,17.20
2023-05-11T05:12:53.467Z,17.30
2023-05-11T05:15:21.470Z,17.30
2023-05-11T05:17:48.766Z,17.30
2023-05-11T05:20:16.690Z,17.20
2023-05-11T05:22:43.923Z,17.30
2023-05-11T05:25:11.220Z,17.20
2023-05-11T05:27:38.508Z,17.20
2023-05-11T05:30:07.536Z,17.10
2023-05-11T05:32:34.627Z,17.00
2023-05-11T05:35:01.716Z,17.10
2023-05-11T05:37:29.604Z,17.10
2023-05-11T05:39:56.789Z,17.00
2023-05-11T05:42:23.848Z,16.90
2023-05-11T05:44:51.592Z,17.00
2023-05-11T05:47:19.001Z,17.00
2023-05-11T05:49:46.132Z,17.00
2023-05-11T05:52:13.573Z,17.10
2023-05-11T05:54:42.171Z,17.20
2023-05-11T05:57:09.285Z,17.30
2023-05-11T05:59:36.634Z,17.40
2023-05-11T06:02:03.660Z,17.50
2023-05-11T06:04:33.797Z,17.50
2023-05-11T06:07:00.974Z,17.50
2023-05-11T06:09:27.972Z,17.60
2023-05-11T06:11:57.599Z,17.60
2023-05-11T06:14:24.693Z,17.70
2023-05-11T06:16:51.838Z,17.70
2023-05-11T06:19:18.913Z,17.60
2023-05-11T06:21:46.480Z,17.60
2023-05-11T06:24:13.777Z,17.60
2023-05-11T06:26:41.603Z,17.60
2023-05-11T06:29:08.792Z,17.70
2023-05-11T06:31:37.513Z,17.80
2023-05-11T06:34:05.408Z,17.90
2023-05-11T06:36:33.315Z,17.90
2023-05-11T06:39:03.400Z,18.00
2023-05-11T06:41:30.804Z,18.10
2023-05-11T06:43:57.965Z,18.20
2023-05-11T06:46:25.211Z,18.30
2023-05-11T06:48:52.838Z,18.10
2023-05-11T06:51:22.044Z,17.90
2023-05-11T06:53:49.209Z,17.80
2023-05-11T06:56:17.117Z,17.90
2023-05-11T06:58:44.440Z,17.80
2023-05-11T07:01:12.261Z,17.50
2023-05-11T07:03:39.810Z,17.50
2023-05-11T07:06:07.452Z,17.60
2023-05-11T07:08:35.076Z,17.60
2023-05-11T07:11:02.269Z,17.70
2023-05-11T07:13:29.691Z,17.80
2023-05-11T07:15:57.716Z,17.80
2023-05-11T07:18:25.175Z,17.90
2023-05-11T07:20:52.283Z,17.90
2023-05-11T07:23:20.532Z,17.90
2023-05-11T07:25:48.012Z,17.90
2023-05-11T07:28:16.142Z,17.90
2023-05-11T07:30:44.486Z,17.90
2023-05-11T07:33:12.041Z,17.90
2023-05-11T07:35:39.199Z,17.90
2023-05-11T07:38:08.234Z,17.90
2023-05-11T07:40:35.645Z,18.00
2023-05-11T07:43:02.765Z,17.80
2023-05-11T07:45:29.925Z,17.80
2023-05-11T07:47:57.171Z,17.90
2023-05-11T07:50:24.838Z,17.80
2023-05-11T07:52:58.141Z,17.70
2023-05-11T07:55:45.839Z,17.80
2023-05-11T07:58:15.775Z,17.80
2023-05-11T08:00:43.054Z,17.70
2023-05-11T08:03:10.347Z,17.60
2023-05-11T08:05:38.082Z,17.60
2023-05-11T08:08:05.578Z,17.60
2023-05-11T08:10:32.693Z,17.50
2023-05-11T08:13:00.319Z,17.60
2023-05-11T08:15:28.534Z,17.50
2023-05-11T08:17:55.771Z,17.30
2023-05-11T08:23:38.146Z,17.40
2023-05-11T08:26:05.491Z,17.40
2023-05-11T08:28:32.872Z,17.40
2023-05-11T08:31:00.874Z,17.40
2023-05-11T08:35:58.300Z,17.60
2023-05-11T08:38:25.449Z,17.60
2023-05-11T08:40:53.001Z,17.60
2023-05-11T08:43:20.181Z,17.60
2023-05-11T08:45:48.640Z,17.80
2023-05-11T08:48:58.857Z,17.70
2023-05-11T08:54:29.692Z,17.80
2023-05-11T08:56:57.293Z,18.00
2023-05-11T08:59:28.138Z,18.10
2023-05-11T09:01:56.346Z,18.10
2023-05-11T09:08:04.709Z,18.20
2023-05-11T09:10:32.776Z,18.30
2023-05-11T09:13:00.167Z,18.30
2023-05-11T09:15:27.299Z,18.30
2023-05-11T09:17:54.375Z,18.40
2023-05-11T09:24:05.606Z,18.70
2023-05-11T09:26:33.807Z,18.90
2023-05-11T09:29:03.347Z,19.00
2023-05-11T09:31:44.923Z,19.10
2023-05-11T09:34:20.720Z,19.30
2023-05-11T09:36:54.833Z,19.30
2023-05-11T09:39:42.107Z,19.10
2023-05-11T09:42:22.058Z,19.10
2023-05-11T09:44:49.258Z,19.00
2023-05-11T09:47:17.864Z,18.90
2023-05-11T09:49:49.706Z,18.70
2023-05-11T09:52:18.504Z,18.70
2023-05-11T09:54:51.076Z,18.60
2023-05-11T09:57:34.854Z,18.40
2023-05-11T10:00:02.123Z,18.40
2023-05-11T10:02:32.665Z,18.40
2023-05-11T10:05:00.954Z,18.40
2023-05-11T10:07:31.518Z,18.20
2023-05-11T10:09:59.215Z,18.30
2023-05-11T10:12:26.627Z,18.30
2023-05-11T10:15:00.210Z,18.20
2023-05-11T10:17:27.416Z,18.20
2023-05-11T10:19:57.421Z,18.40
2023-05-11T10:22:28.891Z,18.50
2023-05-11T10:24:59.695Z,18.60
2023-05-11T10:27:27.220Z,18.60
2023-05-11T10:29:54.347Z,18.90
2023-05-11T10:32:21.742Z,18.90
2023-05-11T10:34:50.499Z,18.90
2023-05-11T10:37:17.817Z,18.80
2023-05-11T10:39:47.833Z,18.80
2023-05-11T10:42:54.071Z,18.80
2023-05-11T10:45:30.495Z,18.90
2023-05-11T10:48:16.480Z,18.90
2023-05-11T10:51:23.923Z,19.00
2023-05-11T10:54:02.575Z,19.00
2023-05-11T10:56:32.727Z,19.00
2023-05-11T10:59:47.420Z,18.90
2023-05-11T11:02:16.262Z,18.80
2023-05-11T11:05:55.756Z,18.90
2023-05-11T11:08:26.207Z,18.80
2023-05-11T11:10:53.574Z,18.90
2023-05-11T11:13:22.995Z,19.00
2023-05-11T11:16:00.606Z,19.10
2023-05-11T11:18:28.964Z,19.10
2023-05-11T11:20:56.979Z,19.30
2023-05-11T11:23:43.485Z,19.30
2023-05-11T11:26:19.095Z,19.50
2023-05-11T11:29:00.771Z,19.30
2023-05-11T11:31:32.006Z,19.40
2023-05-11T11:34:19.899Z,19.50
2023-05-11T11:36:55.979Z,19.60
2023-05-11T11:39:25.748Z,19.50
2023-05-11T11:42:05.223Z,19.60
2023-05-11T11:44:33.654Z,19.60
2023-05-11T11:47:22.419Z,19.70
2023-05-11T11:49:50.811Z,19.70
2023-05-11T11:52:27.013Z,19.70
2023-05-11T11:54:55.154Z,19.60
2023-05-11T11:57:34.039Z,19.70
2023-05-11T12:00:02.013Z,19.60
2023-05-11T12:02:29.598Z,19.50
2023-05-11T12:04:58.404Z,19.60
2023-05-11T12:07:26.439Z,19.60
2023-05-11T12:09:53.870Z,19.70
2023-05-11T12:12:21.313Z,19.90
2023-05-11T12:14:51.600Z,20.00
2023-05-11T12:17:29.929Z,20.00
2023-05-11T12:23:39.389Z,20.10
2023-05-11T12:26:07.490Z,20.20
2023-05-11T12:28:34.846Z,20.10
2023-05-11T12:31:02.024Z,20.20
2023-05-11T12:33:29.442Z,20.30
2023-05-11T12:39:37.275Z,20.60
2023-05-11T12:42:05.213Z,20.60
2023-05-11T12:44:32.820Z,20.60
2023-05-11T12:47:00.060Z,20.60
2023-05-11T12:49:27.886Z,20.50
2023-05-11T12:55:35.719Z,20.50
2023-05-11T12:58:12.485Z,20.40
2023-05-11T13:00:55.597Z,20.40
2023-05-11T13:03:46.705Z,20.40
2023-05-11T13:06:14.334Z,20.30
2023-05-11T13:08:45.907Z,20.40
2023-05-11T13:11:25.929Z,20.40
2023-05-11T13:13:54.118Z,20.20
2023-05-11T13:16:28.300Z,20.10
2023-05-11T13:19:02.621Z,19.90
2023-05-11T13:21:33.858Z,19.90
2023-05-11T13:24:04.393Z,20.00
2023-05-11T13:26:31.661Z,20.00
2023-05-11T13:29:10.050Z,20.00
2023-05-11T13:32:05.037Z,20.00
2023-05-11T13:34:32.467Z,19.90
2023-05-11T13:36:59.807Z,19.90
2023-05-11T13:39:26.978Z,19.80
2023-05-11T13:41:55.942Z,19.80
2023-05-11T13:44:27.432Z,19.70
2023-05-11T13:46:56.909Z,19.70
2023-05-11T13:49:24.210Z,19.60
2023-05-11T13:51:55.648Z,19.50
2023-05-11T13:54:23.005Z,19.40
2023-05-11T13:56:50.154Z,19.30
2023-05-11T13:59:17.287Z,19.30
2023-05-11T14:01:44.513Z,19.30
2023-05-11T14:04:11.840Z,19.30
2023-05-11T14:06:38.953Z,19.30
2023-05-11T14:09:06.090Z,19.20
2023-05-11T14:11:36.351Z,19.20
2023-05-11T14:14:04.430Z,19.30
2023-05-11T14:16:31.745Z,19.30
2023-05-11T14:18:58.996Z,19.30
2023-05-11T14:21:26.290Z,19.30
2023-05-11T14:24:09.774Z,19.30
2023-05-11T14:26:38.293Z,19.30
2023-05-11T14:29:05.652Z,19.30
2023-05-11T14:31:34.162Z,19.30
2023-05-11T14:34:08.491Z,19.30
2023-05-11T14:36:35.601Z,19.30
2023-05-11T14:39:02.980Z,19.20
2023-05-11T14:41:30.366Z,19.20
2023-05-11T14:43:57.464Z,19.10
2023-05-11T14:46:26.805Z,19.10
2023-05-11T14:48:54.298Z,19.10
2023-05-11T14:51:21.376Z,19.00
2023-05-11T14:57:39.086Z,19.00
2023-05-11T15:00:06.909Z,19.00
2023-05-11T15:02:34.052Z,19.00
2023-05-11T15:05:01.308Z,19.00
2023-05-11T15:07:31.279Z,19.00
2023-05-11T15:09:58.413Z,18.90
2023-05-11T15:12:25.526Z,18.90
2023-05-11T15:14:52.635Z,18.80
2023-05-11T15:17:19.935Z,18.80
2023-05-11T15:19:47.119Z,18.70
2023-05-11T15:22:14.129Z,18.60
2023-05-11T15:24:41.416Z,18.60
2023-05-11T15:27:08.438Z,18.40
2023-05-11T15:29:35.590Z,18.50
2023-05-11T15:32:02.726Z,18.50
2023-05-11T15:34:29.915Z,18.50
2023-05-11T15:36:58.773Z,18.60
2023-05-11T15:39:27.283Z,18.60
2023-05-11T15:41:54.308Z,18.60
2023-05-11T15:44:21.492Z,18.60
2023-05-11T15:46:48.800Z,18.60
2023-05-11T15:49:16.985Z,18.50
2023-05-11T15:51:44.122Z,18.40
2023-05-11T15:54:16.639Z,18.40
2023-05-11T15:56:52.640Z,18.30
2023-05-11T15:59:20.583Z,18.30
2023-05-11T16:01:48.236Z,18.30
2023-05-11T16:04:16.559Z,18.30
2023-05-11T16:06:43.703Z,18.20
2023-05-11T16:09:10.877Z,18.10
2023-05-11T16:11:38.165Z,18.10
2023-05-11T16:14:05.453Z,18.20
2023-05-11T16:16:32.742Z,18.10
2023-05-11T16:19:02.266Z,18.10
2023-05-11T16:21:29.695Z,18.10
2023-05-11T16:23:56.897Z,18.10
2023-05-11T16:26:24.160Z,18.20
2023-05-11T16:28:51.252Z,18.30
2023-05-11T16:31:18.466Z,18.40
2023-05-11T16:33:45.756Z,18.30
2023-05-11T16:36:13.379Z,18.40
2023-05-11T16:38:40.720Z,18.40
2023-05-11T16:41:07.984Z,18.50
2023-05-11T16:43:35.206Z,18.50
2023-05-11T16:46:03.021Z,18.50
2023-05-11T16:48:30.226Z,18.50
2023-05-11T16:50:59.592Z,18.40
2023-05-11T16:53:29.416Z,18.40
2023-05-11T16:55:57.182Z,18.40
2023-05-11T16:58:24.654Z,18.40
2023-05-11T17:00:52.233Z,18.40
2023-05-11T17:03:19.601Z,18.30
2023-05-11T17:05:46.921Z,18.30
2023-05-11T17:08:14.089Z,18.30
2023-05-11T17:10:41.856Z,18.30
2023-05-11T17:13:08.985Z,18.30
2023-05-11T17:15:36.076Z,18.20
2023-05-11T17:18:04.112Z,18.10
2023-05-11T17:20:31.197Z,18.10
2023-05-11T17:22:58.347Z,18.00
2023-05-11T17:25:25.637Z,18.00
2023-05-11T17:27:52.718Z,17.90
2023-05-11T17:30:21.017Z,17.80
2023-05-11T17:32:49.455Z,17.80
2023-05-11T17:35:17.198Z,17.70
2023-05-11T17:37:44.491Z,17.70
2023-05-11T17:40:12.089Z,17.70
2023-05-11T17:42:39.723Z,17.60
2023-05-11T17:45:07.492Z,17.50
2023-05-11T17:47:34.785Z,17.40
2023-05-11T17:50:02.723Z,17.50
2023-05-11T17:52:30.016Z,17.50
2023-05-11T17:55:03.267Z,17.60
2023-05-11T17:57:30.477Z,17.60
2023-05-11T17:59:57.693Z,17.60
2023-05-11T18:02:25.037Z,17.70
2023-05-11T18:04:52.251Z,17.70
2023-05-11T18:07:19.550Z,17.70
2023-05-11T18:09:46.790Z,17.60
2023-05-11T18:12:14.144Z,17.60
2023-05-11T18:14:41.418Z,17.60
2023-05-11T18:17:08.967Z,17.60
2023-05-11T18:19:36.489Z,17.50
2023-05-11T18:22:04.734Z,17.50
2023-05-11T18:24:32.291Z,17.50
2023-05-11T18:27:00.403Z,17.40
2023-05-11T18:29:27.550Z,17.40
2023-05-11T18:31:54.921Z,17.40
2023-05-11T18:34:22.484Z,17.50
2023-05-11T18:36:49.649Z,17.50
2023-05-11T18:39:17.052Z,17.40
2023-05-11T18:41:44.452Z,17.40
2023-05-11T18:44:15.430Z,17.40
2023-05-11T18:46:43.967Z,17.40
2023-05-11T18:49:11.423Z,17.40
2023-05-11T18:51:38.838Z,17.40
2023-05-11T18:54:06.752Z,17.40
2023-05-11T18:56:33.935Z,17.30
2023-05-11T18:59:01.163Z,17.40
2023-05-11T19:01:46.155Z,17.40
2023-05-11T19:04:17.812Z,17.50
2023-05-11T19:06:45.297Z,17.50
2023-05-11T19:09:12.534Z,17.50
2023-05-11T19:11:39.754Z,17.40
2023-05-11T19:14:07.855Z,17.40
2023-05-11T19:16:36.036Z,17.40
2023-05-11T19:19:03.876Z,17.40
2023-05-11T19:21:31.888Z,17.30
2023-05-11T19:23:59.046Z,17.30
2023-05-11T19:26:26.297Z,17.40
2023-05-11T19:28:53.789Z,17.40
2023-05-11T19:31:20.924Z,17.40
2023-05-11T19:33:48.224Z,17.30
2023-05-11T19:36:15.552Z,17.30
2023-05-11T19:38:42.676Z,17.40
2023-05-11T19:41:10.061Z,17.40
2023-05-11T19:43:37.729Z,17.40
2023-05-11T19:46:05.182Z,17.30
2023-05-11T19:48:32.420Z,17.30
2023-05-11T19:50:59.920Z,17.30
2023-05-11T19:53:27.527Z,17.30
2023-05-11T19:55:54.864Z,17.20
2023-05-11T19:58:22.576Z,17.20
2023-05-11T20:00:50.170Z,17.20
2023-05-11T20:03:17.598Z,17.20
2023-05-11T20:05:45.737Z,17.20
2023-05-11T20:08:12.960Z,17.20
2023-05-11T20:10:40.267Z,17.20
2023-05-11T20:13:08.311Z,17.10
2023-05-11T20:15:35.954Z,17.10
2023-05-11T20:18:03.678Z,17.20
2023-05-11T20:20:31.652Z,17.20
2023-05-11T20:22:59.470Z,17.10
2023-05-11T20:25:26.781Z,17.10
2023-05-11T20:27:53.832Z,17.20
2023-05-11T20:30:21.167Z,17.20
2023-05-11T20:35:18.802Z,17.20
2023-05-11T20:37:46.217Z,17.20
2023-05-11T20:40:13.728Z,17.10
2023-05-11T20:42:41.067Z,17.10
2023-05-11T20:45:08.768Z,17.10
2023-05-11T20:47:35.954Z,17.10
2023-05-11T20:50:03.571Z,17.10
2023-05-11T20:52:31.002Z,17.00
2023-05-11T20:55:05.677Z,16.90
2023-05-11T20:57:33.357Z,17.00
2023-05-11T21:02:31.114Z,16.90
2023-05-11T21:05:02.614Z,16.80
2023-05-11T21:07:30.358Z,16.60
2023-05-11T21:09:57.471Z,16.70
2023-05-11T21:12:25.119Z,16.70
2023-05-11T21:14:53.188Z,16.70
2023-05-11T21:17:21.932Z,16.70
2023-05-11T21:19:49.451Z,16.70
2023-05-11T21:22:16.793Z,16.60
2023-05-11T21:24:44.135Z,16.60
2023-05-11T21:27:11.571Z,16.60
2023-05-11T21:29:41.536Z,16.60
2023-05-11T21:32:12.085Z,16.50
2023-05-11T21:34:39.810Z,16.40
2023-05-11T21:37:07.285Z,16.40
2023-05-11T21:39:34.706Z,16.40
2023-05-11T21:42:03.087Z,16.30
2023-05-11T21:44:30.292Z,16.20
2023-05-11T21:46:57.659Z,16.20
2023-05-11T21:49:24.937Z,16.20
2023-05-11T21:51:52.416Z,16.10
2023-05-11T21:54:22.670Z,16.10
2023-05-11T21:56:50.402Z,16.10
2023-05-11T21:59:18.030Z,16.10
2023-05-11T22:01:45.825Z,16.10
2023-05-11T22:04:13.162Z,16.00
2023-05-11T22:06:42.238Z,16.00
2023-05-11T22:09:09.545Z,15.90
2023-05-11T22:11:38.651Z,15.90
2023-05-11T22:14:05.906Z,15.90
2023-05-11T22:16:33.219Z,15.90
2023-05-11T22:19:01.533Z,15.90
2023-05-11T22:21:28.722Z,15.90
2023-05-11T22:23:58.859Z,15.80
2023-05-11T22:26:26.859Z,15.70
2023-05-11T22:28:54.145Z,15.60
2023-05-11T22:31:21.666Z,15.60
2023-05-11T22:33:48.839Z,15.70
2023-05-11T22:36:16.189Z,15.80
2023-05-11T22:38:43.332Z,15.80
2023-05-11T22:41:10.582Z,15.80
2023-05-11T22:43:37.917Z,15.90
2023-05-11T22:46:05.247Z,15.90
2023-05-11T22:48:32.425Z,15.90
2023-05-11T22:50:59.612Z,15.90
2023-05-11T22:53:26.931Z,15.80
2023-05-11T22:55:56.661Z,15.70
2023-05-11T22:58:24.923Z,15.70
2023-05-11T23:00:55.976Z,15.70
2023-05-11T23:03:23.304Z,15.70
2023-05-11T23:05:50.481Z,15.80
2023-05-11T23:08:17.618Z,15.70
2023-05-11T23:10:44.709Z,15.70
2023-05-11T23:13:12.052Z,15.70
2023-05-11T23:15:39.030Z,15.70
2023-05-11T23:18:06.349Z,15.70
2023-05-11T23:20:33.806Z,15.60
2023-05-11T23:23:01.031Z,15.50
2023-05-11T23:25:28.414Z,15.50
2023-05-11T23:27:55.974Z,15.40
2023-05-11T23:30:23.295Z,15.40
2023-05-11T23:32:50.355Z,15.40
2023-05-11T23:35:17.452Z,15.40
2023-05-11T23:37:45.391Z,15.40
2023-05-11T23:40:12.464Z,15.30
2023-05-11T23:42:39.610Z,15.30
2023-05-11T23:45:08.505Z,15.30
2023-05-11T23:47:36.879Z,15.20
2023-05-11T23:50:04.648Z,15.10
2023-05-11T23:52:31.923Z,15.10
2023-05-11T23:54:59.065Z,15.10
2023-05-11T23:57:26.149Z,15.10
2023-05-11T23:59:53.117Z,15.10
